sensor_id;sensor_type;location;lat;lon;timestamp;pressure;altitude;pressure_sealevel;temperature;humidity
44734;BME280;30462;52.446;-1.930;2023-05-14T00:00:18;101067.6836;;;;
44734;BME280;30462;52.446;-1.930;2023-05-14T00:01:18;101065.4531;;;;
44734;BME280;30462;52.446;-1.930;2023-05-14T00:02:18;101063.9258;;;;
44734;BME280;30462;52.446;-1.930;2023-05-14T00:03:17;101063.9414;;;;
44734;BME280;30462;52.446;-1.930;2023-05-14T00:04:17;101059.875;;;;
44734;BME280;30462;52.446;-1.930;2023-05-14T00:05:18;101056.7383;;;;
44734;BME280;30462;52.446;-1.930;2023-05-14T00:06:18;101058.6602;;;;
44734;BME280;30462;52.446;-1.930;2023-05-14T00:07:18;101055.0977;;;;
44734;BME280;30462;52.446;-1.930;2023-05-14T00:08:18;101058.3281;;;;
44734;BME280;30462;52.446;-1.930;2023-05-14T00:09:18;101055.6719;;;;
44734;BME280;30462;52.446;-1.930;2023-05-14T00:10:18;101058.4258;;;;
44734;BME280;30462;52.446;-1.930;2023-05-14T00:11:17;101056.4102;;;;
44734;BME280;30462;52.446;-1.930;2023-05-14T00:12:17;101058.3125;;;;
44734;BME280;30462;52.446;-1.930;2023-05-14T00:13:18;101051.9141;;;;
44734;BME280;30462;52.446;-1.930;2023-05-14T00:14:18;101050.6836;;;;
44734;BME280;30462;52.446;-1.930;2023-05-14T00:15:18;101046.5;;;;
44734;BME280;30462;52.446;-1.930;2023-05-14T00:16:18;101044.1016;;;;
44734;BME280;30462;52.446;-1.930;2023-05-14T00:17:17;101044.1523;;;;
44734;BME280;30462;52.446;-1.930;2023-05-14T00:18:18;101042.1367;;;;
44734;BME280;30462;52.446;-1.930;2023-05-14T00:19:18;101043.4141;;;;
44734;BME280;30462;52.446;-1.930;2023-05-14T00:20:17;101044.5078;;;;
44734;BME280;30462;52.446;-1.930;2023-05-14T00:21:19;101043.4102;;;;
44734;BME280;30462;52.446;-1.930;2023-05-14T00:22:17;101043.8008;;;;
44734;BME280;30462;52.446;-1.930;2023-05-14T00:23:18;101044.9141;;;;
44734;BME280;30462;52.446;-1.930;2023-05-14T00:24:18;101040.7461;;;;
44734;BME280;30462;52.446;-1.930;2023-05-14T00:25:18;101039.1875;;;;
44734;BME280;30462;52.446;-1.930;2023-05-14T00:26:18;101038.082;;;;
44734;BME280;30462;52.446;-1.930;2023-05-14T00:27:18;101040.2656;;;;
44734;BME280;30462;52.446;-1.930;2023-05-14T00:28:17;101034.1953;;;;
44734;BME280;30462;52.446;-1.930;2023-05-14T00:29:18;101036.7227;;;;
44734;BME280;30462;52.446;-1.930;2023-05-14T00:30:18;101033.8164;;;;
44734;BME280;30462;52.446;-1.930;2023-05-14T00:31:18;101033.8984;;;;
44734;BME280;30462;52.446;-1.930;2023-05-14T00:32:18;101031.3008;;;;
44734;BME280;30462;52.446;-1.930;2023-05-14T00:33:18;101035.4492;;;;
44734;BME280;30462;52.446;-1.930;2023-05-14T00:34:17;101030.8281;;;;
44734;BME280;30462;52.446;-1.930;2023-05-14T00:35:18;101031.6328;;;;
44734;BME280;30462;52.446;-1.930;2023-05-14T00:36:18;101033.1523;;;;
44734;BME280;30462;52.446;-1.930;2023-05-14T00:37:18;101028.3633;;;;
44734;BME280;30462;52.446;-1.930;2023-05-14T00:38:18;101028.1836;;;;
44734;BME280;30462;52.446;-1.930;2023-05-14T00:39:18;101029.2383;;;;
44734;BME280;30462;52.446;-1.930;2023-05-14T00:40:17;101026.5;;;;
44734;BME280;30462;52.446;-1.930;2023-05-14T00:41:18;101024.7695;;;;
44734;BME280;30462;52.446;-1.930;2023-05-14T00:42:17;101023.5078;;;;
44734;BME280;30462;52.446;-1.930;2023-05-14T00:43:18;101022.6445;;;;
44734;BME280;30462;52.446;-1.930;2023-05-14T00:44:18;101021.082;;;;
44734;BME280;30462;52.446;-1.930;2023-05-14T00:45:17;101018.707;;;;
44734;BME280;30462;52.446;-1.930;2023-05-14T00:46:17;101015.9688;;;;
44734;BME280;30462;52.446;-1.930;2023-05-14T00:47:18;101015.6367;;;;
44734;BME280;30462;52.446;-1.930;2023-05-14T00:48:18;101013.0195;;;;
44734;BME280;30462;52.446;-1.930;2023-05-14T00:49:18;101014.9141;;;;
44734;BME280;30462;52.446;-1.930;2023-05-14T00:50:18;101011.4258;;;;
44734;BME280;30462;52.446;-1.930;2023-05-14T00:51:18;101009.5195;;;;
44734;BME280;30462;52.446;-1.930;2023-05-14T00:52:18;101013.2266;;;;
44734;BME280;30462;52.446;-1.930;2023-05-14T00:53:18;101008.4336;;;;
44734;BME280;30462;52.446;-1.930;2023-05-14T00:54:18;101005.6797;;;;
44734;BME280;30462;52.446;-1.930;2023-05-14T00:55:18;101006.9141;;;;
44734;BME280;30462;52.446;-1.930;2023-05-14T00:56:18;101003.1211;;;;
44734;BME280;30462;52.446;-1.930;2023-05-14T00:57:18;101003.3594;;;;
44734;BME280;30462;52.446;-1.930;2023-05-14T00:58:19;101003.7773;;;;
44734;BME280;30462;52.446;-1.930;2023-05-14T00:59:18;101005.1797;;;;
44734;BME280;30462;52.446;-1.930;2023-05-14T01:00:18;101004.5547;;;;
44734;BME280;30462;52.446;-1.930;2023-05-14T01:01:18;101002.5273;;;;
44734;BME280;30462;52.446;-1.930;2023-05-14T01:02:17;101003.1914;;;;
44734;BME280;30462;52.446;-1.930;2023-05-14T01:03:18;100997.2227;;;;
44734;BME280;30462;52.446;-1.930;2023-05-14T01:04:18;100998.3008;;;;
44734;BME280;30462;52.446;-1.930;2023-05-14T01:05:18;100999.1367;;;;
44734;BME280;30462;52.446;-1.930;2023-05-14T01:06:20;100998.7969;;;;
44734;BME280;30462;52.446;-1.930;2023-05-14T01:07:24;100998.6641;;;;
44734;BME280;30462;52.446;-1.930;2023-05-14T01:08:20;100998.0469;;;;
44734;BME280;30462;52.446;-1.930;2023-05-14T01:09:21;100997.8242;;;;
44734;BME280;30462;52.446;-1.930;2023-05-14T01:10:19;100994.457;;;;
44734;BME280;30462;52.446;-1.930;2023-05-14T01:11:20;100990;;;;
44734;BME280;30462;52.446;-1.930;2023-05-14T01:12:18;100992.8828;;;;
44734;BME280;30462;52.446;-1.930;2023-05-14T01:13:21;100995.4766;;;;
44734;BME280;30462;52.446;-1.930;2023-05-14T01:14:19;100991.707;;;;
44734;BME280;30462;52.446;-1.930;2023-05-14T01:15:18;100990.7539;;;;
44734;BME280;30462;52.446;-1.930;2023-05-14T01:16:18;100986.1758;;;;
44734;BME280;30462;52.446;-1.930;2023-05-14T01:17:17;100987.8711;;;;
44734;BME280;30462;52.446;-1.930;2023-05-14T01:18:18;100983.7695;;;;
44734;BME280;30462;52.446;-1.930;2023-05-14T01:19:21;100985.2188;;;;
44734;BME280;30462;52.446;-1.930;2023-05-14T01:20:17;100981.7344;;;;
44734;BME280;30462;52.446;-1.930;2023-05-14T01:22:18;100980.8789;;;;
44734;BME280;30462;52.446;-1.930;2023-05-14T01:23:18;100974.9297;;;;
44734;BME280;30462;52.446;-1.930;2023-05-14T01:24:18;100975.6836;;;;
44734;BME280;30462;52.446;-1.930;2023-05-14T01:25:18;100974.5195;;;;
44734;BME280;30462;52.446;-1.930;2023-05-14T01:26:17;100973.1484;;;;
44734;BME280;30462;52.446;-1.930;2023-05-14T01:27:21;100973.3789;;;;
44734;BME280;30462;52.446;-1.930;2023-05-14T01:28:18;100972.7031;;;;
44734;BME280;30462;52.446;-1.930;2023-05-14T01:29:18;100977.3203;;;;
44734;BME280;30462;52.446;-1.930;2023-05-14T01:30:21;100973.0977;;;;
44734;BME280;30462;52.446;-1.930;2023-05-14T01:31:19;100973.9375;;;;
44734;BME280;30462;52.446;-1.930;2023-05-14T01:32:18;100972.293;;;;
44734;BME280;30462;52.446;-1.930;2023-05-14T01:33:18;100973.125;;;;
44734;BME280;30462;52.446;-1.930;2023-05-14T01:34:19;100970.8125;;;;
44734;BME280;30462;52.446;-1.930;2023-05-14T01:35:18;100970.6602;;;;
44734;BME280;30462;52.446;-1.930;2023-05-14T01:36:18;100970.7734;;;;
44734;BME280;30462;52.446;-1.930;2023-05-14T01:37:18;100970.7148;;;;
44734;BME280;30462;52.446;-1.930;2023-05-14T01:38:18;100972.9844;;;;
44734;BME280;30462;52.446;-1.930;2023-05-14T01:39:17;100970.8242;;;;
44734;BME280;30462;52.446;-1.930;2023-05-14T01:40:17;100973.1172;;;;
44734;BME280;30462;52.446;-1.930;2023-05-14T01:41:17;100972.9922;;;;
44734;BME280;30462;52.446;-1.930;2023-05-14T01:42:17;100969.2188;;;;
44734;BME280;30462;52.446;-1.930;2023-05-14T01:43:18;100966.5;;;;
44734;BME280;30462;52.446;-1.930;2023-05-14T01:44:18;100964.207;;;;
44734;BME280;30462;52.446;-1.930;2023-05-14T01:45:18;100965.3945;;;;
44734;BME280;30462;52.446;-1.930;2023-05-14T01:46:18;100963.4844;;;;
44734;BME280;30462;52.446;-1.930;2023-05-14T01:47:18;100964.2773;;;;
44734;BME280;30462;52.446;-1.930;2023-05-14T01:48:18;100964.6289;;;;
44734;BME280;30462;52.446;-1.930;2023-05-14T01:49:18;100964.2344;;;;
44734;BME280;30462;52.446;-1.930;2023-05-14T01:50:18;100963.8984;;;;
44734;BME280;30462;52.446;-1.930;2023-05-14T01:51:18;100963.2188;;;;
44734;BME280;30462;52.446;-1.930;2023-05-14T01:52:18;100963.2344;;;;
44734;BME280;30462;52.446;-1.930;2023-05-14T01:53:17;100961.9258;;;;
44734;BME280;30462;52.446;-1.930;2023-05-14T01:54:18;100965.0195;;;;
44734;BME280;30462;52.446;-1.930;2023-05-14T01:55:18;100962.6523;;;;
44734;BME280;30462;52.446;-1.930;2023-05-14T01:56:18;100963.0898;;;;
44734;BME280;30462;52.446;-1.930;2023-05-14T01:57:18;100959.6016;;;;
44734;BME280;30462;52.446;-1.930;2023-05-14T01:58:17;100958.9961;;;;
44734;BME280;30462;52.446;-1.930;2023-05-14T01:59:18;100957.9609;;;;
44734;BME280;30462;52.446;-1.930;2023-05-14T02:00:17;100955.832;;;;
44734;BME280;30462;52.446;-1.930;2023-05-14T02:01:17;100954.2617;;;;
44734;BME280;30462;52.446;-1.930;2023-05-14T02:02:18;100955.1992;;;;
44734;BME280;30462;52.446;-1.930;2023-05-14T02:03:18;100955.2695;;;;
44734;BME280;30462;52.446;-1.930;2023-05-14T02:04:18;100947.8711;;;;
44734;BME280;30462;52.446;-1.930;2023-05-14T02:05:18;100945.5781;;;;
44734;BME280;30462;52.446;-1.930;2023-05-14T02:06:17;100947.3594;;;;
44734;BME280;30462;52.446;-1.930;2023-05-14T02:07:18;100941.4609;;;;
44734;BME280;30462;52.446;-1.930;2023-05-14T02:08:18;100943.4492;;;;
44734;BME280;30462;52.446;-1.930;2023-05-14T02:09:18;100945.9727;;;;
44734;BME280;30462;52.446;-1.930;2023-05-14T02:10:18;100944.7461;;;;
44734;BME280;30462;52.446;-1.930;2023-05-14T02:11:18;100946.8789;;;;
44734;BME280;30462;52.446;-1.930;2023-05-14T02:12:18;100945.3672;;;;
44734;BME280;30462;52.446;-1.930;2023-05-14T02:13:18;100945.4375;;;;
44734;BME280;30462;52.446;-1.930;2023-05-14T02:14:18;100947.6445;;;;
44734;BME280;30462;52.446;-1.930;2023-05-14T02:15:18;100946.9414;;;;
44734;BME280;30462;52.446;-1.930;2023-05-14T02:16:18;100948.0195;;;;
44734;BME280;30462;52.446;-1.930;2023-05-14T02:17:18;100949.8516;;;;
44734;BME280;30462;52.446;-1.930;2023-05-14T02:18:18;100946.7656;;;;
44734;BME280;30462;52.446;-1.930;2023-05-14T02:19:18;100946.3438;;;;
44734;BME280;30462;52.446;-1.930;2023-05-14T02:20:18;100947.7305;;;;
44734;BME280;30462;52.446;-1.930;2023-05-14T02:21:18;100946.582;;;;
44734;BME280;30462;52.446;-1.930;2023-05-14T02:22:17;100945.8594;;;;
44734;BME280;30462;52.446;-1.930;2023-05-14T02:23:18;100945.9453;;;;
44734;BME280;30462;52.446;-1.930;2023-05-14T02:24:18;100947.0234;;;;
44734;BME280;30462;52.446;-1.930;2023-05-14T02:25:18;100948.1563;;;;
44734;BME280;30462;52.446;-1.930;2023-05-14T02:26:18;100942.7617;;;;
44734;BME280;30462;52.446;-1.930;2023-05-14T02:27:17;100944.7266;;;;
44734;BME280;30462;52.446;-1.930;2023-05-14T02:28:18;100939.4258;;;;
44734;BME280;30462;52.446;-1.930;2023-05-14T02:29:18;100934.8398;;;;
44734;BME280;30462;52.446;-1.930;2023-05-14T02:30:18;100936.0547;;;;
44734;BME280;30462;52.446;-1.930;2023-05-14T02:31:18;100936.0078;;;;
44734;BME280;30462;52.446;-1.930;2023-05-14T02:32:17;100931.3086;;;;
44734;BME280;30462;52.446;-1.930;2023-05-14T02:33:18;100935.8164;;;;
44734;BME280;30462;52.446;-1.930;2023-05-14T02:34:18;100930.8125;;;;
44734;BME280;30462;52.446;-1.930;2023-05-14T02:35:18;100925.8906;;;;
44734;BME280;30462;52.446;-1.930;2023-05-14T02:36:17;100924.0898;;;;
44734;BME280;30462;52.446;-1.930;2023-05-14T02:37:17;100925.6797;;;;
44734;BME280;30462;52.446;-1.930;2023-05-14T02:38:18;100922.0273;;;;
44734;BME280;30462;52.446;-1.930;2023-05-14T02:39:18;100925.7969;;;;
44734;BME280;30462;52.446;-1.930;2023-05-14T02:40:18;100922.2969;;;;
44734;BME280;30462;52.446;-1.930;2023-05-14T02:41:18;100919.2344;;;;
44734;BME280;30462;52.446;-1.930;2023-05-14T02:42:18;100920.3281;;;;
44734;BME280;30462;52.446;-1.930;2023-05-14T02:43:18;100919.082;;;;
44734;BME280;30462;52.446;-1.930;2023-05-14T02:44:18;100917.9648;;;;
44734;BME280;30462;52.446;-1.930;2023-05-14T02:45:18;100918.4063;;;;
44734;BME280;30462;52.446;-1.930;2023-05-14T02:46:18;100916.2461;;;;
44734;BME280;30462;52.446;-1.930;2023-05-14T02:47:18;100915.2422;;;;
44734;BME280;30462;52.446;-1.930;2023-05-14T02:48:19;100912.8594;;;;
44734;BME280;30462;52.446;-1.930;2023-05-14T02:49:18;100911.5625;;;;
44734;BME280;30462;52.446;-1.930;2023-05-14T02:50:18;100912.125;;;;
44734;BME280;30462;52.446;-1.930;2023-05-14T02:51:18;100907.6953;;;;
44734;BME280;30462;52.446;-1.930;2023-05-14T02:52:18;100909.0234;;;;
44734;BME280;30462;52.446;-1.930;2023-05-14T02:53:17;100907.7148;;;;
44734;BME280;30462;52.446;-1.930;2023-05-14T02:54:18;100904.0547;;;;
44734;BME280;30462;52.446;-1.930;2023-05-14T02:55:18;100905.9531;;;;
44734;BME280;30462;52.446;-1.930;2023-05-14T02:56:18;100906.1758;;;;
44734;BME280;30462;52.446;-1.930;2023-05-14T02:57:18;100907.2773;;;;
44734;BME280;30462;52.446;-1.930;2023-05-14T02:58:17;100905.3164;;;;
44734;BME280;30462;52.446;-1.930;2023-05-14T02:59:18;100904.5195;;;;
44734;BME280;30462;52.446;-1.930;2023-05-14T03:00:18;100901.2734;;;;
44734;BME280;30462;52.446;-1.930;2023-05-14T03:01:18;100901.0273;;;;
44734;BME280;30462;52.446;-1.930;2023-05-14T03:02:18;100900.6094;;;;
44734;BME280;30462;52.446;-1.930;2023-05-14T03:03:18;100899.0977;;;;
44734;BME280;30462;52.446;-1.930;2023-05-14T03:04:18;100901.2227;;;;
44734;BME280;30462;52.446;-1.930;2023-05-14T03:05:17;100903.2578;;;;
44734;BME280;30462;52.446;-1.930;2023-05-14T03:06:18;100902.3438;;;;
44734;BME280;30462;52.446;-1.930;2023-05-14T03:07:18;100899.5586;;;;
44734;BME280;30462;52.446;-1.930;2023-05-14T03:08:18;100897.6641;;;;
44734;BME280;30462;52.446;-1.930;2023-05-14T03:09:17;100894.4219;;;;
44734;BME280;30462;52.446;-1.930;2023-05-14T03:10:17;100892.8672;;;;
44734;BME280;30462;52.446;-1.930;2023-05-14T03:11:18;100895.7227;;;;
44734;BME280;30462;52.446;-1.930;2023-05-14T03:12:18;100893.8125;;;;
44734;BME280;30462;52.446;-1.930;2023-05-14T03:13:18;100891.4766;;;;
44734;BME280;30462;52.446;-1.930;2023-05-14T03:14:18;100890.5117;;;;
44734;BME280;30462;52.446;-1.930;2023-05-14T03:15:17;100888.4453;;;;
44734;BME280;30462;52.446;-1.930;2023-05-14T03:16:18;100885.6563;;;;
44734;BME280;30462;52.446;-1.930;2023-05-14T03:17:18;100882.5508;;;;
44734;BME280;30462;52.446;-1.930;2023-05-14T03:18:18;100884.543;;;;
44734;BME280;30462;52.446;-1.930;2023-05-14T03:19:18;100882.582;;;;
44734;BME280;30462;52.446;-1.930;2023-05-14T03:20:17;100881.5;;;;
44734;BME280;30462;52.446;-1.930;2023-05-14T03:21:18;100880.7852;;;;
44734;BME280;30462;52.446;-1.930;2023-05-14T03:22:18;100880.5508;;;;
44734;BME280;30462;52.446;-1.930;2023-05-14T03:23:18;100878.8008;;;;
44734;BME280;30462;52.446;-1.930;2023-05-14T03:24:19;100876.3164;;;;
44734;BME280;30462;52.446;-1.930;2023-05-14T03:25:18;100878.5117;;;;
44734;BME280;30462;52.446;-1.930;2023-05-14T03:26:18;100875.1641;;;;
44734;BME280;30462;52.446;-1.930;2023-05-14T03:27:17;100872.8711;;;;
44734;BME280;30462;52.446;-1.930;2023-05-14T03:28:18;100868.3672;;;;
44734;BME280;30462;52.446;-1.930;2023-05-14T03:29:18;100866.1523;;;;
44734;BME280;30462;52.446;-1.930;2023-05-14T03:30:18;100865.4258;;;;
44734;BME280;30462;52.446;-1.930;2023-05-14T03:31:18;100866.0859;;;;
44734;BME280;30462;52.446;-1.930;2023-05-14T03:32:18;100863.4609;;;;
44734;BME280;30462;52.446;-1.930;2023-05-14T03:33:17;100865.918;;;;
44734;BME280;30462;52.446;-1.930;2023-05-14T03:34:18;100864.4258;;;;
44734;BME280;30462;52.446;-1.930;2023-05-14T03:35:18;100864.4219;;;;
44734;BME280;30462;52.446;-1.930;2023-05-14T03:36:18;100861.9375;;;;
44734;BME280;30462;52.446;-1.930;2023-05-14T03:37:19;100864.082;;;;
44734;BME280;30462;52.446;-1.930;2023-05-14T03:38:17;100864.2539;;;;
44734;BME280;30462;52.446;-1.930;2023-05-14T03:39:18;100861.8867;;;;
44734;BME280;30462;52.446;-1.930;2023-05-14T03:40:18;100863.1992;;;;
44734;BME280;30462;52.446;-1.930;2023-05-14T03:41:19;100863.2422;;;;
44734;BME280;30462;52.446;-1.930;2023-05-14T03:42:17;100860.7773;;;;
44734;BME280;30462;52.446;-1.930;2023-05-14T03:43:18;100864.3164;;;;
44734;BME280;30462;52.446;-1.930;2023-05-14T03:44:18;100864.9922;;;;
44734;BME280;30462;52.446;-1.930;2023-05-14T03:45:18;100865.1797;;;;
44734;BME280;30462;52.446;-1.930;2023-05-14T03:46:18;100864.2773;;;;
44734;BME280;30462;52.446;-1.930;2023-05-14T03:47:18;100863.043;;;;
44734;BME280;30462;52.446;-1.930;2023-05-14T03:48:18;100863;;;;
44734;BME280;30462;52.446;-1.930;2023-05-14T03:49:18;100860.3047;;;;
44734;BME280;30462;52.446;-1.930;2023-05-14T03:50:17;100861.9414;;;;
44734;BME280;30462;52.446;-1.930;2023-05-14T03:51:18;100858.9492;;;;
44734;BME280;30462;52.446;-1.930;2023-05-14T03:52:18;100861.1484;;;;
44734;BME280;30462;52.446;-1.930;2023-05-14T03:53:18;100858.8008;;;;
44734;BME280;30462;52.446;-1.930;2023-05-14T03:54:18;100855.1992;;;;
44734;BME280;30462;52.446;-1.930;2023-05-14T03:55:17;100853.7539;;;;
44734;BME280;30462;52.446;-1.930;2023-05-14T03:56:17;100850.1094;;;;
44734;BME280;30462;52.446;-1.930;2023-05-14T03:57:18;100853.3398;;;;
44734;BME280;30462;52.446;-1.930;2023-05-14T03:58:18;100847.6133;;;;
44734;BME280;30462;52.446;-1.930;2023-05-14T03:59:18;100851.5547;;;;
44734;BME280;30462;52.446;-1.930;2023-05-14T04:00:18;100846.8789;;;;
44734;BME280;30462;52.446;-1.930;2023-05-14T04:01:18;100848.582;;;;
44734;BME280;30462;52.446;-1.930;2023-05-14T04:02:17;100845.6016;;;;
44734;BME280;30462;52.446;-1.930;2023-05-14T04:03:18;100845.3594;;;;
44734;BME280;30462;52.446;-1.930;2023-05-14T04:04:18;100847.082;;;;
44734;BME280;30462;52.446;-1.930;2023-05-14T04:05:18;100845.2227;;;;
44734;BME280;30462;52.446;-1.930;2023-05-14T04:06:18;100843.8086;;;;
44734;BME280;30462;52.446;-1.930;2023-05-14T04:07:18;100841.4219;;;;
44734;BME280;30462;52.446;-1.930;2023-05-14T04:08:17;100841.5234;;;;
44734;BME280;30462;52.446;-1.930;2023-05-14T04:09:18;100839.3906;;;;
44734;BME280;30462;52.446;-1.930;2023-05-14T04:10:18;100836.2813;;;;
44734;BME280;30462;52.446;-1.930;2023-05-14T04:11:17;100837.9883;;;;
44734;BME280;30462;52.446;-1.930;2023-05-14T04:12:18;100835.4648;;;;
44734;BME280;30462;52.446;-1.930;2023-05-14T04:13:18;100834.6289;;;;
44734;BME280;30462;52.446;-1.930;2023-05-14T04:14:18;100830.9219;;;;
44734;BME280;30462;52.446;-1.930;2023-05-14T04:15:18;100835.8477;;;;
44734;BME280;30462;52.446;-1.930;2023-05-14T04:16:18;100834.0547;;;;
44734;BME280;30462;52.446;-1.930;2023-05-14T04:17:17;100834.4805;;;;
44734;BME280;30462;52.446;-1.930;2023-05-14T04:18:18;100835.1367;;;;
44734;BME280;30462;52.446;-1.930;2023-05-14T04:19:18;100839.9219;;;;
44734;BME280;30462;52.446;-1.930;2023-05-14T04:20:18;100840.2813;;;;
44734;BME280;30462;52.446;-1.930;2023-05-14T04:21:18;100836.8672;;;;
44734;BME280;30462;52.446;-1.930;2023-05-14T04:22:17;100842.6172;;;;
44734;BME280;30462;52.446;-1.930;2023-05-14T04:23:19;100839.6758;;;;
44734;BME280;30462;52.446;-1.930;2023-05-14T04:24:17;100843.3984;;;;
44734;BME280;30462;52.446;-1.930;2023-05-14T04:25:18;100839.0703;;;;
44734;BME280;30462;52.446;-1.930;2023-05-14T04:26:18;100836.9023;;;;
44734;BME280;30462;52.446;-1.930;2023-05-14T04:27:18;100841.7773;;;;
44734;BME280;30462;52.446;-1.930;2023-05-14T04:28:18;100841.0781;;;;
44734;BME280;30462;52.446;-1.930;2023-05-14T04:29:17;100843.3672;;;;
44734;BME280;30462;52.446;-1.930;2023-05-14T04:30:18;100841.5391;;;;
44734;BME280;30462;52.446;-1.930;2023-05-14T04:31:18;100838.4805;;;;
44734;BME280;30462;52.446;-1.930;2023-05-14T04:32:18;100837.1406;;;;
44734;BME280;30462;52.446;-1.930;2023-05-14T04:33:18;100842.0977;;;;
44734;BME280;30462;52.446;-1.930;2023-05-14T04:34:17;100837.4492;;;;
44734;BME280;30462;52.446;-1.930;2023-05-14T04:35:18;100836.2617;;;;
44734;BME280;30462;52.446;-1.930;2023-05-14T04:36:17;100835.9063;;;;
44734;BME280;30462;52.446;-1.930;2023-05-14T04:37:18;100831.7656;;;;
44734;BME280;30462;52.446;-1.930;2023-05-14T04:38:18;100832.0938;;;;
44734;BME280;30462;52.446;-1.930;2023-05-14T04:39:18;100827.4688;;;;
44734;BME280;30462;52.446;-1.930;2023-05-14T04:40:17;100833.3711;;;;
44734;BME280;30462;52.446;-1.930;2023-05-14T04:41:17;100828.7891;;;;
44734;BME280;30462;52.446;-1.930;2023-05-14T04:42:18;100827.3242;;;;
44734;BME280;30462;52.446;-1.930;2023-05-14T04:43:18;100829.4922;;;;
44734;BME280;30462;52.446;-1.930;2023-05-14T04:44:18;100826.2031;;;;
44734;BME280;30462;52.446;-1.930;2023-05-14T04:45:17;100825.1523;;;;
44734;BME280;30462;52.446;-1.930;2023-05-14T04:46:18;100822.1641;;;;
44734;BME280;30462;52.446;-1.930;2023-05-14T04:47:18;100824.2109;;;;
44734;BME280;30462;52.446;-1.930;2023-05-14T04:48:18;100825.5078;;;;
44734;BME280;30462;52.446;-1.930;2023-05-14T04:49:18;100823.4688;;;;
44734;BME280;30462;52.446;-1.930;2023-05-14T04:50:18;100825.2813;;;;
44734;BME280;30462;52.446;-1.930;2023-05-14T04:51:17;100824.0586;;;;
44734;BME280;30462;52.446;-1.930;2023-05-14T04:52:18;100824.9727;;;;
44734;BME280;30462;52.446;-1.930;2023-05-14T04:53:18;100820.25;;;;
44734;BME280;30462;52.446;-1.930;2023-05-14T04:54:18;100819.6016;;;;
44734;BME280;30462;52.446;-1.930;2023-05-14T04:55:18;100816.8086;;;;
44734;BME280;30462;52.446;-1.930;2023-05-14T04:56:18;100815.2852;;;;
44734;BME280;30462;52.446;-1.930;2023-05-14T04:57:18;100816.8594;;;;
44734;BME280;30462;52.446;-1.930;2023-05-14T04:58:17;100815.0664;;;;
44734;BME280;30462;52.446;-1.930;2023-05-14T04:59:18;100815.0742;;;;
44734;BME280;30462;52.446;-1.930;2023-05-14T05:00:18;100815.707;;;;
44734;BME280;30462;52.446;-1.930;2023-05-14T05:01:18;100812.9922;;;;
44734;BME280;30462;52.446;-1.930;2023-05-14T05:02:18;100813.5;;;;
44734;BME280;30462;52.446;-1.930;2023-05-14T05:03:17;100815.3203;;;;
44734;BME280;30462;52.446;-1.930;2023-05-14T05:04:18;100817.0547;;;;
44734;BME280;30462;52.446;-1.930;2023-05-14T05:05:18;100815.8281;;;;
44734;BME280;30462;52.446;-1.930;2023-05-14T05:06:18;100815.8477;;;;
44734;BME280;30462;52.446;-1.930;2023-05-14T05:07:18;100813.1914;;;;
44734;BME280;30462;52.446;-1.930;2023-05-14T05:08:18;100814.8008;;;;
44734;BME280;30462;52.446;-1.930;2023-05-14T05:09:18;100812.7891;;;;
44734;BME280;30462;52.446;-1.930;2023-05-14T05:10:17;100812.2188;;;;
44734;BME280;30462;52.446;-1.930;2023-05-14T05:11:18;100811.0781;;;;
44734;BME280;30462;52.446;-1.930;2023-05-14T05:12:18;100815.6172;;;;
44734;BME280;30462;52.446;-1.930;2023-05-14T05:13:18;100811.9258;;;;
44734;BME280;30462;52.446;-1.930;2023-05-14T05:14:18;100810.2422;;;;
44734;BME280;30462;52.446;-1.930;2023-05-14T05:15:17;100809.2891;;;;
44734;BME280;30462;52.446;-1.930;2023-05-14T05:16:17;100809.4844;;;;
44734;BME280;30462;52.446;-1.930;2023-05-14T05:17:18;100805.1016;;;;
44734;BME280;30462;52.446;-1.930;2023-05-14T05:18:18;100803.6094;;;;
44734;BME280;30462;52.446;-1.930;2023-05-14T05:19:18;100806.5938;;;;
44734;BME280;30462;52.446;-1.930;2023-05-14T05:20:18;100805.5234;;;;
44734;BME280;30462;52.446;-1.930;2023-05-14T05:21:17;100805.9297;;;;
44734;BME280;30462;52.446;-1.930;2023-05-14T05:22:18;100803.6914;;;;
44734;BME280;30462;52.446;-1.930;2023-05-14T05:23:18;100806.3945;;;;
44734;BME280;30462;52.446;-1.930;2023-05-14T05:24:18;100806.0352;;;;
44734;BME280;30462;52.446;-1.930;2023-05-14T05:25:18;100805.957;;;;
44734;BME280;30462;52.446;-1.930;2023-05-14T05:26:17;100809.2031;;;;
44734;BME280;30462;52.446;-1.930;2023-05-14T05:27:18;100807.6797;;;;
44734;BME280;30462;52.446;-1.930;2023-05-14T05:28:18;100808.0781;;;;
44734;BME280;30462;52.446;-1.930;2023-05-14T05:29:18;100807.7031;;;;
44734;BME280;30462;52.446;-1.930;2023-05-14T05:30:18;100807.7344;;;;
44734;BME280;30462;52.446;-1.930;2023-05-14T05:31:18;100809.1602;;;;
44734;BME280;30462;52.446;-1.930;2023-05-14T05:32:18;100808.0625;;;;
44734;BME280;30462;52.446;-1.930;2023-05-14T05:33:18;100804.8516;;;;
44734;BME280;30462;52.446;-1.930;2023-05-14T05:34:17;100804.1992;;;;
44734;BME280;30462;52.446;-1.930;2023-05-14T05:35:18;100802.8203;;;;
44734;BME280;30462;52.446;-1.930;2023-05-14T05:36:18;100802.1016;;;;
44734;BME280;30462;52.446;-1.930;2023-05-14T05:37:18;100799.6641;;;;
44734;BME280;30462;52.446;-1.930;2023-05-14T05:38:18;100800.2344;;;;
44734;BME280;30462;52.446;-1.930;2023-05-14T05:39:19;100800.4805;;;;
44734;BME280;30462;52.446;-1.930;2023-05-14T05:40:17;100798.8281;;;;
44734;BME280;30462;52.446;-1.930;2023-05-14T05:41:19;100798.2578;;;;
44734;BME280;30462;52.446;-1.930;2023-05-14T05:42:18;100799.3359;;;;
44734;BME280;30462;52.446;-1.930;2023-05-14T05:43:18;100795.7813;;;;
44734;BME280;30462;52.446;-1.930;2023-05-14T05:44:18;100801.3672;;;;
44734;BME280;30462;52.446;-1.930;2023-05-14T05:45:17;100802.4609;;;;
44734;BME280;30462;52.446;-1.930;2023-05-14T05:46:18;100802.2188;;;;
44734;BME280;30462;52.446;-1.930;2023-05-14T05:47:18;100800.5313;;;;